Time;durP1;ratioP1;P1;durP2;ratioP2;P2;SDS_P1;SDS_P2;PMS_P1;PMS_P2;Temp;Humidity;BMP_temperature;BMP_pressure;BME280_temperature;BME280_humidity;BME280_pressure;Samples;Min_cycle;Max_cycle;Signal;HPM_P1;HPM_P2
2023/08/26 00:00:24;;;;;;;6.13;5.20;;;21.90;99.90;;;;;;4938875;28;20246;-75
2023/08/26 00:02:50;;;;;;;9.00;5.90;;;21.80;99.90;;;;;;4939724;28;20218;-75
2023/08/26 00:05:15;;;;;;;9.10;6.00;;;21.60;99.90;;;;;;4940539;28;20764;-75
2023/08/26 00:07:41;;;;;;;7.20;6.47;;;21.60;99.90;;;;;;4938915;28;20700;-75
2023/08/26 00:10:07;;;;;;;9.20;6.50;;;21.60;99.90;;;;;;4943422;28;20286;-75
2023/08/26 00:12:32;;;;;;;9.37;7.37;;;21.50;99.90;;;;;;4936949;28;20199;-75
2023/08/26 00:14:58;;;;;;;7.40;5.90;;;21.50;99.90;;;;;;4940282;28;20215;-75
2023/08/26 00:17:24;;;;;;;8.13;6.80;;;21.60;99.90;;;;;;4942057;28;20614;-75
2023/08/26 00:19:50;;;;;;;8.00;6.90;;;21.60;99.90;;;;;;4943293;28;20549;-75
2023/08/26 00:22:17;;;;;;;12.90;7.60;;;21.70;99.90;;;;;;4938415;28;20226;-74
2023/08/26 00:24:43;;;;;;;7.73;6.90;;;21.80;99.90;;;;;;4931800;28;20841;-75
2023/08/26 00:27:08;;;;;;;10.20;6.77;;;21.70;99.90;;;;;;4939447;28;20474;-75
2023/08/26 00:29:34;;;;;;;7.73;6.37;;;21.70;99.90;;;;;;4925505;29;20187;-74
2023/08/26 00:32:00;;;;;;;7.80;6.20;;;21.80;99.90;;;;;;4943769;28;20201;-75
2023/08/26 00:34:25;;;;;;;9.17;8.03;;;21.90;99.90;;;;;;4942331;28;20732;-75
2023/08/26 00:36:51;;;;;;;8.93;6.23;;;21.90;99.90;;;;;;4943215;28;20214;-75
2023/08/26 00:39:16;;;;;;;8.27;6.33;;;21.80;99.90;;;;;;4942901;28;20202;-75
2023/08/26 00:41:42;;;;;;;8.33;4.83;;;21.80;99.90;;;;;;4939797;28;20225;-75
2023/08/26 00:44:08;;;;;;;5.60;4.23;;;21.70;99.90;;;;;;4937207;28;20189;-75
2023/08/26 00:46:34;;;;;;;6.63;4.93;;;21.80;99.90;;;;;;4937496;28;20218;-75
2023/08/26 00:49:00;;;;;;;5.00;4.40;;;21.90;99.90;;;;;;4937537;28;20262;-75
2023/08/26 00:51:26;;;;;;;6.57;4.00;;;22.00;99.90;;;;;;4937675;28;20496;-75
2023/08/26 00:53:53;;;;;;;6.30;4.53;;;22.00;99.90;;;;;;4941073;28;20874;-75
2023/08/26 00:56:20;;;;;;;5.70;3.93;;;21.90;99.90;;;;;;4943151;28;20784;-75
2023/08/26 00:58:46;;;;;;;5.37;4.20;;;22.00;99.90;;;;;;4938495;28;20526;-75
2023/08/26 01:01:11;;;;;;;6.10;4.40;;;22.00;99.90;;;;;;4936506;28;20562;-75
2023/08/26 01:03:38;;;;;;;5.93;4.10;;;22.00;99.90;;;;;;4941634;28;20215;-75
2023/08/26 01:06:03;;;;;;;7.97;4.73;;;22.10;99.90;;;;;;4937771;28;20631;-75
2023/08/26 01:08:30;;;;;;;8.00;4.23;;;22.10;99.90;;;;;;4941220;28;20546;-75
2023/08/26 01:11:20;;;;;;;7.77;4.40;;;22.10;99.90;;;;;;4943637;28;20206;-75
2023/08/26 01:14:07;;;;;;;4.80;4.40;;;22.20;99.90;;;;;;4936305;28;20443;-75
2023/08/26 01:16:35;;;;;;;8.40;4.37;;;22.20;99.90;;;;;;4938677;28;20446;-75
2023/08/26 01:19:02;;;;;;;4.70;4.00;;;22.20;99.90;;;;;;4937789;28;20505;-75
2023/08/26 01:21:36;;;;;;;5.73;4.87;;;22.20;99.90;;;;;;4935791;28;20483;-74
2023/08/26 01:24:03;;;;;;;7.00;5.63;;;22.30;99.90;;;;;;4938845;28;20957;-76
2023/08/26 01:26:28;;;;;;;6.23;4.87;;;22.30;99.90;;;;;;4936267;28;20566;-75
2023/08/26 01:28:54;;;;;;;6.37;4.80;;;22.40;99.90;;;;;;4940780;28;21127;-76
2023/08/26 01:31:21;;;;;;;9.53;5.60;;;22.40;99.90;;;;;;4941463;28;20652;-73
2023/08/26 01:33:57;;;;;;;5.33;4.83;;;22.40;99.90;;;;;;4934067;28;21416;-73
2023/08/26 01:36:25;;;;;;;6.00;5.20;;;22.40;99.90;;;;;;4941371;28;21345;-75
2023/08/26 01:38:54;;;;;;;6.60;5.70;;;22.40;99.90;;;;;;4935756;28;20917;-75
2023/08/26 01:41:21;;;;;;;7.50;5.90;;;22.20;99.90;;;;;;4945091;28;20558;-75
2023/08/26 01:43:48;;;;;;;6.37;5.70;;;22.40;99.90;;;;;;4935785;28;20470;-75
2023/08/26 01:46:16;;;;;;;8.60;6.50;;;22.30;99.90;;;;;;4943648;28;20458;-75
2023/08/26 01:48:42;;;;;;;7.97;6.50;;;22.20;99.90;;;;;;4939450;28;20439;-75
2023/08/26 01:51:08;;;;;;;7.63;6.17;;;22.30;99.90;;;;;;4937225;28;20986;-75
2023/08/26 01:53:34;;;;;;;11.43;8.27;;;22.30;99.90;;;;;;4934407;28;20658;-75
2023/08/26 01:55:59;;;;;;;7.77;5.93;;;22.30;99.90;;;;;;4936927;28;20306;-74
2023/08/26 01:58:25;;;;;;;8.17;6.77;;;22.30;99.90;;;;;;4938507;28;20219;-75
2023/08/26 02:00:51;;;;;;;7.47;5.93;;;22.30;99.90;;;;;;4938996;28;20668;-75
2023/08/26 02:03:16;;;;;;;6.70;6.10;;;22.30;99.90;;;;;;4940188;28;20639;-75
2023/08/26 02:05:42;;;;;;;7.80;5.90;;;22.30;99.90;;;;;;4936425;28;20200;-75
2023/08/26 02:08:07;;;;;;;17.83;6.83;;;22.30;99.90;;;;;;4935849;28;20222;-75
2023/08/26 02:10:33;;;;;;;8.63;6.50;;;22.20;99.90;;;;;;4937330;28;20690;-75
2023/08/26 02:12:58;;;;;;;8.07;6.90;;;22.30;99.90;;;;;;4939618;28;20642;-75
2023/08/26 02:15:24;;;;;;;12.70;6.80;;;22.30;99.90;;;;;;4932131;28;20210;-75
2023/08/26 02:17:49;;;;;;;9.93;6.17;;;22.20;99.90;;;;;;4936996;28;20721;-75
2023/08/26 02:20:15;;;;;;;9.27;6.63;;;22.20;99.90;;;;;;4935195;28;20187;-75
2023/08/26 02:22:40;;;;;;;7.10;6.40;;;22.20;99.90;;;;;;4942310;28;20242;-75
2023/08/26 02:25:07;;;;;;;7.63;6.13;;;22.40;99.90;;;;;;4942280;28;21179;-75
2023/08/26 02:27:33;;;;;;;7.37;6.30;;;22.40;99.90;;;;;;4941937;28;20617;-74
2023/08/26 02:29:58;;;;;;;7.73;6.80;;;22.30;99.90;;;;;;4935753;28;20479;-75
2023/08/26 02:32:24;;;;;;;9.00;5.80;;;22.20;99.90;;;;;;4941160;28;20559;-75
2023/08/26 02:34:50;;;;;;;12.73;6.63;;;22.30;99.90;;;;;;4941340;28;20210;-75
2023/08/26 02:37:15;;;;;;;11.83;6.20;;;22.30;99.90;;;;;;4939900;28;20188;-75
2023/08/26 02:39:41;;;;;;;9.27;6.20;;;22.30;99.90;;;;;;4937678;28;20202;-75
2023/08/26 02:42:06;;;;;;;10.20;7.23;;;22.20;99.90;;;;;;4940173;28;20274;-74
2023/08/26 02:44:32;;;;;;;11.03;6.70;;;22.20;99.90;;;;;;4938402;28;20238;-75
2023/08/26 02:46:57;;;;;;;8.80;6.67;;;22.20;99.90;;;;;;4937148;28;20212;-75
2023/08/26 02:49:23;;;;;;;7.73;6.90;;;22.20;99.90;;;;;;4938735;28;20184;-75
2023/08/26 02:51:49;;;;;;;10.90;6.97;;;22.20;99.90;;;;;;4940878;28;20271;-75
2023/08/26 02:54:14;;;;;;;11.20;6.60;;;22.20;99.90;;;;;;4938411;28;20225;-75
2023/08/26 02:56:40;;;;;;;8.93;6.83;;;22.20;99.90;;;;;;4942843;28;20266;-75
2023/08/26 02:59:05;;;;;;;8.57;6.87;;;22.20;99.90;;;;;;4939430;28;20215;-75
2023/08/26 03:01:31;;;;;;;7.83;6.87;;;22.20;99.90;;;;;;4941469;28;20611;-75
2023/08/26 03:03:57;;;;;;;14.00;6.70;;;22.30;99.90;;;;;;4940701;28;20590;-74
2023/08/26 03:06:23;;;;;;;8.50;6.80;;;22.30;99.90;;;;;;4945931;28;20298;-77
2023/08/26 03:08:49;;;;;;;7.80;6.37;;;22.30;99.90;;;;;;4942151;28;20439;-75
2023/08/26 03:11:14;;;;;;;9.53;7.50;;;22.30;99.90;;;;;;4943844;28;20438;-75
2023/08/26 03:13:40;;;;;;;7.07;6.37;;;22.20;99.90;;;;;;4942857;28;20184;-75
2023/08/26 03:16:07;;;;;;;9.80;6.17;;;22.30;99.90;;;;;;4939783;28;20249;-75
2023/08/26 03:18:33;;;;;;;8.37;7.57;;;22.20;99.90;;;;;;4942108;28;20686;-75
2023/08/26 03:21:04;;;;;;;8.57;6.80;;;22.20;99.90;;;;;;4942904;28;20521;-75
2023/08/26 03:23:29;;;;;;;6.80;6.10;;;22.20;99.90;;;;;;4945912;28;20596;-76
2023/08/26 03:25:55;;;;;;;8.97;6.10;;;22.10;99.90;;;;;;4940953;28;20442;-75
2023/08/26 03:28:21;;;;;;;8.40;6.17;;;22.10;99.90;;;;;;4942644;28;20539;-75
2023/08/26 03:30:47;;;;;;;10.70;6.00;;;22.10;99.90;;;;;;4944056;28;20242;-76
2023/08/26 03:33:12;;;;;;;8.23;6.33;;;22.10;99.90;;;;;;4942399;28;20186;-75
2023/08/26 03:35:39;;;;;;;7.07;6.37;;;22.10;99.90;;;;;;4942399;28;20218;-75
2023/08/26 03:38:04;;;;;;;8.00;7.20;;;22.20;99.90;;;;;;4944142;28;20194;-75
2023/08/26 03:40:30;;;;;;;10.50;6.50;;;22.20;99.90;;;;;;4946097;28;20482;-74
2023/08/26 03:42:55;;;;;;;6.37;5.70;;;22.20;99.90;;;;;;4943642;28;20334;-76
2023/08/26 03:45:21;;;;;;;9.57;6.80;;;22.10;99.90;;;;;;4940853;28;20199;-75
2023/08/26 03:47:47;;;;;;;8.60;5.83;;;22.10;99.90;;;;;;4939801;28;20183;-75
2023/08/26 03:50:12;;;;;;;12.77;6.30;;;22.10;99.90;;;;;;4942647;28;20977;-76
2023/08/26 03:52:38;;;;;;;8.70;6.23;;;22.00;99.90;;;;;;4943372;28;20202;-75
2023/08/26 03:55:04;;;;;;;7.03;5.93;;;22.10;99.90;;;;;;4937062;28;20654;-75
2023/08/26 03:57:30;;;;;;;8.77;7.07;;;22.10;99.90;;;;;;4940293;28;20194;-75
2023/08/26 03:59:56;;;;;;;11.43;6.23;;;21.90;99.90;;;;;;4937976;28;20493;-75
2023/08/26 04:02:21;;;;;;;10.07;6.30;;;21.90;99.90;;;;;;4942944;28;20561;-75
2023/08/26 04:04:47;;;;;;;8.40;6.67;;;21.90;99.90;;;;;;4943989;28;20214;-75
2023/08/26 04:07:13;;;;;;;14.57;5.90;;;21.90;99.90;;;;;;4938766;28;20184;-75
2023/08/26 04:09:38;;;;;;;7.40;5.90;;;21.80;99.90;;;;;;4941199;28;20183;-75
2023/08/26 04:12:04;;;;;;;9.60;6.40;;;21.80;99.90;;;;;;4942606;28;20183;-76
2023/08/26 04:14:30;;;;;;;7.00;5.63;;;21.90;99.90;;;;;;4956980;28;20211;-78
2023/08/26 04:16:55;;;;;;;8.00;6.10;;;21.90;99.90;;;;;;4938617;28;20447;-75
2023/08/26 04:19:21;;;;;;;7.43;5.70;;;21.80;99.90;;;;;;4941653;28;20203;-75
2023/08/26 04:21:46;;;;;;;9.73;7.70;;;21.80;99.90;;;;;;4940345;28;20211;-76
2023/08/26 04:24:12;;;;;;;13.60;6.97;;;21.80;99.90;;;;;;4940879;28;20327;-75
2023/08/26 04:26:38;;;;;;;8.60;6.23;;;21.70;99.90;;;;;;4952219;28;20179;-76
2023/08/26 04:29:04;;;;;;;9.50;5.83;;;21.60;99.90;;;;;;4944827;28;20674;-76
2023/08/26 04:31:29;;;;;;;5.93;4.90;;;21.60;99.90;;;;;;4944590;28;20187;-75
2023/08/26 04:33:55;;;;;;;9.93;6.70;;;21.70;99.90;;;;;;4940936;28;20198;-75
2023/08/26 04:36:21;;;;;;;8.27;6.53;;;21.70;99.90;;;;;;4944592;28;20710;-74
2023/08/26 04:38:46;;;;;;;7.73;6.20;;;21.70;99.90;;;;;;4940015;28;20289;-75
2023/08/26 04:41:12;;;;;;;6.30;5.70;;;21.80;99.90;;;;;;4941681;28;20185;-75
2023/08/26 04:43:40;;;;;;;8.27;5.93;;;21.80;99.90;;;;;;4941626;28;20187;-75
2023/08/26 04:46:06;;;;;;;8.20;5.90;;;21.70;99.90;;;;;;4942710;28;20457;-75
2023/08/26 04:48:31;;;;;;;10.47;5.77;;;21.70;99.90;;;;;;4938415;28;20813;-74
2023/08/26 04:50:57;;;;;;;7.90;6.00;;;21.80;99.90;;;;;;4941209;28;20492;-74
2023/08/26 04:53:23;;;;;;;10.73;5.80;;;21.90;99.90;;;;;;4945343;28;20223;-75
2023/08/26 04:55:52;;;;;;;8.80;5.97;;;21.70;99.90;;;;;;4936525;28;21036;-74
2023/08/26 04:58:18;;;;;;;7.63;5.33;;;21.80;99.90;;;;;;4938989;28;20511;-74
2023/08/26 05:00:44;;;;;;;12.33;5.80;;;21.80;99.90;;;;;;4939581;28;20426;-75
2023/08/26 05:03:10;;;;;;;10.50;7.10;;;21.80;99.90;;;;;;4940251;28;20485;-75
2023/08/26 05:05:40;;;;;;;9.70;6.17;;;21.80;99.90;;;;;;4937558;28;20458;-75
2023/08/26 05:08:05;;;;;;;8.13;5.27;;;21.80;99.90;;;;;;4937626;28;20183;-74
2023/08/26 05:10:31;;;;;;;7.93;6.23;;;21.80;99.90;;;;;;4940614;28;20440;-74
2023/08/26 05:12:56;;;;;;;8.07;6.27;;;21.80;99.90;;;;;;4940364;28;20195;-74
2023/08/26 05:15:22;;;;;;;9.17;6.60;;;21.70;99.90;;;;;;4938762;28;20873;-75
2023/08/26 05:17:48;;;;;;;5.67;5.17;;;21.70;99.90;;;;;;4941820;28;20258;-75
2023/08/26 05:20:13;;;;;;;6.20;5.30;;;21.70;99.90;;;;;;4940800;28;20211;-76
2023/08/26 05:22:40;;;;;;;11.33;6.37;;;21.80;99.90;;;;;;4944453;28;20595;-74
2023/08/26 05:25:07;;;;;;;7.73;5.10;;;21.70;99.90;;;;;;4942315;28;20203;-74
2023/08/26 05:27:32;;;;;;;9.70;5.83;;;21.70;99.90;;;;;;4940126;28;20870;-75
2023/08/26 05:29:58;;;;;;;8.43;5.77;;;21.80;99.90;;;;;;4944585;28;20438;-75
2023/08/26 05:32:24;;;;;;;6.70;6.00;;;21.80;99.90;;;;;;4938713;28;20627;-74
2023/08/26 05:34:49;;;;;;;8.40;5.60;;;21.80;99.90;;;;;;4940408;28;20857;-75
2023/08/26 05:37:15;;;;;;;5.63;5.00;;;21.80;99.90;;;;;;4937630;28;20467;-75
2023/08/26 05:39:40;;;;;;;10.13;6.10;;;21.70;99.90;;;;;;4940931;28;20206;-75
2023/08/26 05:42:06;;;;;;;6.50;5.90;;;21.70;99.90;;;;;;4940000;28;20510;-75
2023/08/26 05:44:33;;;;;;;8.63;5.70;;;21.60;99.90;;;;;;4941571;28;20214;-75
2023/08/26 05:46:58;;;;;;;6.60;5.63;;;21.60;99.90;;;;;;4941547;28;20665;-74
2023/08/26 05:49:24;;;;;;;6.90;5.37;;;21.60;99.90;;;;;;4938780;28;20430;-75
2023/08/26 05:51:49;;;;;;;9.03;6.00;;;21.60;99.90;;;;;;4939206;28;20199;-75
2023/08/26 05:54:15;;;;;;;20.83;7.20;;;21.60;99.90;;;;;;4938995;28;20262;-75
2023/08/26 05:56:40;;;;;;;8.03;5.87;;;21.60;99.90;;;;;;4937990;28;20197;-75
2023/08/26 05:59:06;;;;;;;6.10;5.50;;;21.60;99.90;;;;;;4937747;28;20665;-75
2023/08/26 06:01:32;;;;;;;8.40;6.10;;;21.60;99.90;;;;;;4955151;28;20778;-75
2023/08/26 06:03:58;;;;;;;11.80;6.50;;;21.70;99.90;;;;;;4937007;28;20182;-74
2023/08/26 06:06:24;;;;;;;14.03;6.80;;;21.60;99.90;;;;;;4935857;28;20199;-75
2023/08/26 06:08:50;;;;;;;9.83;6.50;;;21.70;99.90;;;;;;4940613;28;20911;-75
2023/08/26 06:11:15;;;;;;;8.40;6.87;;;21.60;99.90;;;;;;4941665;28;20838;-75
2023/08/26 06:13:41;;;;;;;8.20;5.40;;;21.50;99.90;;;;;;4941476;28;20254;-75
2023/08/26 06:16:06;;;;;;;6.30;5.33;;;21.50;99.90;;;;;;4941304;28;20198;-75
2023/08/26 06:18:32;;;;;;;6.47;5.60;;;21.60;99.90;;;;;;4935944;28;20183;-74
2023/08/26 06:20:57;;;;;;;10.77;6.30;;;21.70;99.90;;;;;;4943598;28;20179;-74
2023/08/26 06:23:23;;;;;;;9.60;6.63;;;21.60;99.90;;;;;;4940796;28;20238;-75
2023/08/26 06:25:53;;;;;;;7.93;6.60;;;21.60;99.90;;;;;;4942221;28;20210;-75
2023/08/26 06:28:19;;;;;;;9.03;6.27;;;21.70;99.90;;;;;;4950578;28;20186;-74
2023/08/26 06:30:46;;;;;;;7.80;5.40;;;21.70;99.90;;;;;;4943333;28;20470;-75
2023/08/26 06:33:12;;;;;;;8.23;5.90;;;21.50;99.90;;;;;;4941194;28;20453;-74
2023/08/26 06:35:38;;;;;;;7.53;5.63;;;21.60;99.90;;;;;;4942833;28;20458;-74
2023/08/26 06:38:04;;;;;;;8.13;5.80;;;21.60;99.90;;;;;;4936120;28;20551;-74
2023/08/26 06:40:33;;;;;;;10.47;6.07;;;21.60;99.90;;;;;;4943922;28;20281;-75
2023/08/26 06:42:59;;;;;;;6.40;5.60;;;21.50;99.90;;;;;;4946367;28;20214;-74
2023/08/26 06:45:25;;;;;;;8.80;6.07;;;21.70;99.90;;;;;;4940392;28;20509;-74
2023/08/26 06:47:51;;;;;;;8.53;4.67;;;21.70;99.90;;;;;;4942297;28;20340;-74
2023/08/26 06:50:16;;;;;;;6.50;5.00;;;21.60;99.90;;;;;;4940217;28;20427;-74
2023/08/26 06:52:42;;;;;;;7.67;5.20;;;21.60;99.90;;;;;;4943086;28;20685;-75
2023/08/26 06:55:10;;;;;;;6.90;5.53;;;21.60;99.90;;;;;;4940814;28;20257;-74
2023/08/26 06:57:36;;;;;;;6.03;4.30;;;21.60;99.90;;;;;;4945780;28;20223;-74
2023/08/26 07:00:05;;;;;;;6.67;4.60;;;21.70;99.90;;;;;;4941518;28;20579;-74
2023/08/26 07:02:31;;;;;;;5.73;4.37;;;21.90;99.90;;;;;;4941044;28;20681;-74
2023/08/26 07:04:57;;;;;;;6.17;3.73;;;21.90;99.90;;;;;;4938600;28;20457;-75
2023/08/26 07:07:22;;;;;;;5.13;3.53;;;21.90;99.90;;;;;;4942661;28;20435;-75
2023/08/26 07:09:48;;;;;;;5.63;3.60;;;21.80;99.90;;;;;;4944865;28;20188;-75
2023/08/26 07:12:14;;;;;;;5.60;3.50;;;21.80;99.90;;;;;;4943127;28;20191;-74
2023/08/26 07:14:40;;;;;;;5.03;3.40;;;21.90;99.90;;;;;;4941207;28;20208;-74
2023/08/26 07:17:06;;;;;;;5.40;4.00;;;21.90;99.90;;;;;;4942911;28;20533;-74
2023/08/26 07:19:31;;;;;;;4.00;3.60;;;21.90;99.90;;;;;;4942082;28;20700;-75
2023/08/26 07:21:57;;;;;;;8.23;4.00;;;21.80;99.90;;;;;;4947340;28;20204;-74
2023/08/26 07:24:22;;;;;;;4.73;4.10;;;21.80;99.90;;;;;;4947429;28;20237;-74
2023/08/26 07:26:48;;;;;;;7.50;4.23;;;21.90;99.90;;;;;;4945515;28;20175;-74
2023/08/26 07:29:14;;;;;;;5.37;3.77;;;21.90;99.90;;;;;;4947547;28;20213;-74
2023/08/26 07:31:40;;;;;;;6.87;3.77;;;21.80;99.90;;;;;;4942382;28;20187;-74
2023/08/26 07:34:06;;;;;;;6.30;4.00;;;21.80;99.90;;;;;;4941575;28;20757;-74
2023/08/26 07:36:32;;;;;;;5.90;3.80;;;21.80;99.90;;;;;;4939554;28;20470;-74
2023/08/26 07:38:58;;;;;;;3.63;2.90;;;21.80;99.90;;;;;;4943942;28;20254;-74
2023/08/26 07:41:24;;;;;;;5.23;3.13;;;21.80;99.90;;;;;;4944343;28;20347;-74
2023/08/26 07:43:49;;;;;;;4.97;3.10;;;21.80;99.90;;;;;;4942308;28;20939;-75
2023/08/26 07:46:18;;;;;;;5.17;2.80;;;21.80;99.90;;;;;;4940866;28;20290;-74
2023/08/26 07:48:44;;;;;;;5.50;3.17;;;21.70;99.90;;;;;;4945679;28;20183;-74
2023/08/26 07:51:10;;;;;;;5.00;3.00;;;21.70;99.90;;;;;;4941378;28;20842;-74
2023/08/26 07:53:35;;;;;;;4.60;2.60;;;21.90;99.90;;;;;;4946341;28;20268;-75
2023/08/26 07:56:01;;;;;;;4.43;2.90;;;21.90;99.90;;;;;;4941444;28;20607;-76
2023/08/26 07:58:26;;;;;;;4.63;2.70;;;21.90;99.90;;;;;;4942625;28;20304;-74
2023/08/26 08:00:52;;;;;;;8.30;3.07;;;22.00;99.90;;;;;;4935533;28;20242;-74
2023/08/26 08:03:17;;;;;;;7.27;3.17;;;22.10;99.90;;;;;;4940536;28;20398;-75
2023/08/26 08:05:43;;;;;;;4.40;2.83;;;22.00;99.90;;;;;;4939897;28;20235;-74
2023/08/26 08:08:08;;;;;;;4.73;3.23;;;22.20;99.90;;;;;;4942957;28;20294;-74
2023/08/26 08:10:34;;;;;;;6.00;3.37;;;22.10;99.90;;;;;;4940787;28;20192;-75
2023/08/26 08:12:59;;;;;;;4.80;3.67;;;22.00;99.90;;;;;;4941052;28;20815;-75
2023/08/26 08:15:25;;;;;;;6.77;4.43;;;22.00;99.90;;;;;;4943082;28;20748;-75
2023/08/26 08:17:50;;;;;;;5.50;3.83;;;22.20;99.90;;;;;;4943688;28;20191;-75
2023/08/26 08:20:16;;;;;;;9.10;3.90;;;22.10;99.90;;;;;;4941042;28;20203;-75
2023/08/26 08:22:43;;;;;;;7.07;4.60;;;22.30;99.90;;;;;;4941648;28;20302;-75
2023/08/26 08:25:09;;;;;;;3.10;2.63;;;22.20;99.90;;;;;;4939508;28;20207;-74
2023/08/26 08:27:37;;;;;;;6.13;3.60;;;22.20;99.90;;;;;;4943358;28;20477;-74
2023/08/26 08:30:04;;;;;;;3.73;3.00;;;22.20;99.90;;;;;;4945063;28;20960;-74
2023/08/26 08:32:30;;;;;;;4.20;3.30;;;22.10;99.90;;;;;;4940660;28;20473;-74
2023/08/26 08:34:55;;;;;;;5.67;3.30;;;22.20;99.90;;;;;;4940536;28;20486;-74
2023/08/26 08:37:21;;;;;;;5.37;3.20;;;22.30;99.90;;;;;;4940721;28;20199;-74
2023/08/26 08:39:47;;;;;;;5.80;3.47;;;22.40;99.90;;;;;;4937858;28;20734;-74
2023/08/26 08:42:17;;;;;;;5.27;3.17;;;22.40;99.90;;;;;;4937606;28;20203;-74
2023/08/26 08:44:44;;;;;;;7.60;3.40;;;22.40;99.90;;;;;;4939271;28;20244;-74
2023/08/26 08:47:11;;;;;;;7.40;3.20;;;22.20;99.90;;;;;;4943426;28;20482;-74
2023/08/26 08:49:37;;;;;;;4.63;2.90;;;22.30;99.90;;;;;;4940817;28;20957;-74
2023/08/26 08:52:04;;;;;;;4.10;3.23;;;22.20;99.90;;;;;;4943694;28;20788;-74
2023/08/26 08:54:30;;;;;;;4.63;3.40;;;22.40;99.90;;;;;;4936194;28;20485;-74
2023/08/26 08:56:57;;;;;;;9.30;3.87;;;22.40;99.90;;;;;;4940900;28;20725;-74
2023/08/26 08:59:25;;;;;;;4.70;3.20;;;22.40;99.90;;;;;;4940926;28;20414;-74
2023/08/26 09:01:54;;;;;;;5.00;3.23;;;22.40;99.90;;;;;;4940940;28;20498;-74
2023/08/26 09:04:21;;;;;;;5.40;3.10;;;22.10;99.90;;;;;;4939062;28;20543;-74
2023/08/26 09:06:48;;;;;;;6.00;3.10;;;22.00;99.90;;;;;;4937318;28;20446;-74
2023/08/26 09:09:16;;;;;;;3.30;2.70;;;22.20;99.90;;;;;;4940416;28;20435;-74
2023/08/26 09:11:42;;;;;;;5.00;3.33;;;22.30;99.90;;;;;;4934281;28;20439;-74
2023/08/26 09:14:08;;;;;;;4.00;2.87;;;22.30;99.90;;;;;;4938121;28;20458;-74
2023/08/26 09:16:37;;;;;;;4.23;2.60;;;22.40;99.90;;;;;;4936825;28;20458;-75
2023/08/26 09:19:07;;;;;;;4.23;3.00;;;22.40;99.90;;;;;;4939276;28;20997;-72
2023/08/26 09:21:33;;;;;;;4.40;2.60;;;22.50;99.90;;;;;;4941414;28;20475;-72
2023/08/26 09:24:00;;;;;;;2.87;2.30;;;22.50;99.90;;;;;;4938388;28;20485;-72
2023/08/26 09:26:26;;;;;;;4.73;2.83;;;22.40;99.90;;;;;;4935728;28;20192;-73
2023/08/26 09:28:53;;;;;;;4.30;2.47;;;22.30;99.90;;;;;;4938843;28;20513;-72
2023/08/26 09:31:19;;;;;;;4.20;2.70;;;22.20;99.90;;;;;;4938251;28;20896;-73
2023/08/26 09:34:03;;;;;;;3.43;2.30;;;22.30;99.90;;;;;;4938556;28;20439;-73
2023/08/26 09:36:39;;;;;;;4.67;2.30;;;22.30;99.90;;;;;;4938305;28;20513;-74
2023/08/26 09:39:15;;;;;;;5.23;2.93;;;22.40;99.90;;;;;;4940378;28;20443;-75
2023/08/26 09:41:45;;;;;;;4.33;2.80;;;22.60;99.90;;;;;;4940823;28;20477;-72
2023/08/26 09:44:17;;;;;;;4.93;3.20;;;22.90;99.90;;;;;;4945059;28;21235;-74
2023/08/26 09:46:44;;;;;;;5.00;2.63;;;23.10;99.90;;;;;;4940040;28;20450;-74
2023/08/26 09:49:13;;;;;;;4.00;2.60;;;23.20;99.90;;;;;;4938113;28;20976;-74
2023/08/26 09:51:48;;;;;;;4.10;3.10;;;23.10;99.90;;;;;;4938588;28;20991;-74
2023/08/26 09:54:16;;;;;;;4.53;2.30;;;23.10;99.90;;;;;;4944671;28;20484;-71
2023/08/26 09:56:41;;;;;;;6.97;2.30;;;23.20;99.90;;;;;;4943993;28;20967;-72
2023/08/26 09:59:07;;;;;;;3.20;2.30;;;23.20;99.90;;;;;;4939497;28;20437;-72
2023/08/26 10:01:34;;;;;;;4.27;3.50;;;23.20;99.90;;;;;;4941660;28;20218;-72
2023/08/26 10:04:05;;;;;;;3.27;2.30;;;23.30;99.90;;;;;;4941087;28;20191;-73
2023/08/26 10:06:35;;;;;;;4.50;2.57;;;23.30;99.90;;;;;;4945770;28;20479;-72
2023/08/26 10:09:07;;;;;;;4.53;2.30;;;23.30;99.90;;;;;;4943790;28;20533;-72
2023/08/26 10:11:40;;;;;;;4.57;2.63;;;23.10;99.90;;;;;;4944020;28;20470;-72
2023/08/26 10:14:11;;;;;;;6.73;2.37;;;23.00;99.90;;;;;;4938884;28;20446;-73
2023/08/26 10:16:37;;;;;;;3.77;2.63;;;23.10;99.90;;;;;;4943324;28;20464;-74
2023/08/26 10:19:03;;;;;;;5.80;2.50;;;23.10;99.90;;;;;;4945990;28;20430;-73
2023/08/26 10:21:30;;;;;;;6.80;2.67;;;23.10;99.90;;;;;;4944601;28;20435;-73
2023/08/26 10:23:56;;;;;;;3.60;2.37;;;22.90;99.90;;;;;;4942200;28;20917;-73
2023/08/26 10:26:23;;;;;;;3.43;2.50;;;22.80;99.90;;;;;;4948497;28;20441;-73
2023/08/26 10:28:49;;;;;;;4.80;3.00;;;22.70;99.90;;;;;;4945547;28;20513;-73
2023/08/26 10:31:16;;;;;;;4.60;2.80;;;22.70;99.90;;;;;;4940220;28;20498;-73
2023/08/26 10:34:06;;;;;;;5.90;2.60;;;22.70;99.90;;;;;;4944477;28;20435;-73
2023/08/26 10:36:35;;;;;;;4.60;2.77;;;22.50;99.90;;;;;;4943153;28;20509;-72
2023/08/26 10:39:01;;;;;;;5.60;3.43;;;22.50;99.90;;;;;;4944732;28;20804;-72
2023/08/26 10:41:27;;;;;;;6.57;3.07;;;22.40;99.90;;;;;;4944950;28;20473;-73
2023/08/26 10:43:56;;;;;;;3.60;2.80;;;22.40;99.90;;;;;;4944212;28;20326;-73
2023/08/26 10:46:34;;;;;;;3.93;2.60;;;22.20;99.90;;;;;;4945744;28;20475;-73
2023/08/26 10:49:01;;;;;;;3.07;2.57;;;22.20;99.90;;;;;;4944330;28;20430;-72
2023/08/26 10:51:27;;;;;;;4.30;3.07;;;22.20;99.90;;;;;;4941131;28;20442;-72
2023/08/26 10:54:01;;;;;;;5.80;3.13;;;22.30;99.90;;;;;;4937103;28;20446;-71
2023/08/26 10:56:28;;;;;;;4.07;3.30;;;22.30;99.90;;;;;;4945386;28;20471;-71
2023/08/26 10:59:03;;;;;;;3.10;2.60;;;22.40;99.90;;;;;;4946087;28;20987;-71
2023/08/26 11:01:39;;;;;;;3.13;2.30;;;22.50;99.90;;;;;;4946897;28;20434;-71
2023/08/26 11:04:05;;;;;;;4.33;2.70;;;22.40;99.90;;;;;;4945601;28;20430;-71
2023/08/26 11:06:38;;;;;;;3.73;2.73;;;22.40;99.90;;;;;;4944997;28;20419;-71
2023/08/26 11:09:04;;;;;;;3.53;3.00;;;22.40;99.90;;;;;;4941447;28;20550;-71
2023/08/26 11:11:30;;;;;;;4.80;2.73;;;22.40;99.90;;;;;;4941682;28;20789;-71
2023/08/26 11:13:55;;;;;;;4.57;3.00;;;22.40;99.90;;;;;;4946030;28;20433;-71
2023/08/26 11:16:21;;;;;;;4.57;2.97;;;22.10;99.90;;;;;;4945313;28;20648;-71
2023/08/26 11:18:47;;;;;;;6.07;3.13;;;22.10;99.90;;;;;;4947294;28;20214;-71
2023/08/26 11:21:14;;;;;;;4.77;2.47;;;22.00;99.90;;;;;;4946043;28;20929;-71
2023/08/26 11:23:41;;;;;;;5.63;2.43;;;22.00;99.90;;;;;;4943749;28;20267;-71
2023/08/26 11:26:07;;;;;;;3.63;2.60;;;22.00;99.90;;;;;;4945781;28;20446;-71
2023/08/26 11:28:33;;;;;;;3.10;2.63;;;22.00;99.90;;;;;;4938590;28;20438;-70
2023/08/26 11:31:00;;;;;;;4.03;2.87;;;21.90;99.90;;;;;;4944648;28;20423;-71
2023/08/26 11:33:27;;;;;;;4.10;2.63;;;21.90;99.90;;;;;;4943552;28;20183;-70
2023/08/26 11:35:53;;;;;;;4.60;3.30;;;22.00;99.90;;;;;;4944383;28;20988;-70
2023/08/26 11:38:19;;;;;;;4.20;2.13;;;22.00;99.90;;;;;;4933197;28;20435;-70
2023/08/26 11:40:46;;;;;;;3.73;3.23;;;22.20;99.90;;;;;;4945492;28;20712;-70
2023/08/26 11:43:14;;;;;;;6.40;2.63;;;22.20;99.90;;;;;;4943797;28;20470;-70
2023/08/26 11:45:45;;;;;;;4.87;2.60;;;22.10;99.90;;;;;;4940463;28;21056;-70
2023/08/26 11:48:12;;;;;;;3.87;2.30;;;22.00;99.90;;;;;;4939870;28;20415;-70
2023/08/26 11:50:39;;;;;;;5.03;3.00;;;22.00;99.90;;;;;;4944111;28;20446;-70
2023/08/26 11:53:05;;;;;;;4.07;2.00;;;21.80;99.90;;;;;;4946306;28;20431;-70
2023/08/26 11:55:32;;;;;;;3.13;2.10;;;22.00;99.90;;;;;;4946954;28;20459;-70
2023/08/26 11:58:00;;;;;;;5.40;2.37;;;21.90;99.90;;;;;;4947907;28;20434;-70
2023/08/26 12:00:26;;;;;;;5.90;2.30;;;22.10;99.90;;;;;;4944887;28;20448;-70
2023/08/26 12:02:54;;;;;;;2.60;1.77;;;22.10;99.90;;;;;;4944793;28;20462;-70
2023/08/26 12:05:20;;;;;;;3.00;1.87;;;22.10;99.90;;;;;;4944975;28;20790;-70
2023/08/26 12:07:50;;;;;;;7.87;2.43;;;22.10;99.90;;;;;;4945263;28;20426;-70
2023/08/26 12:10:18;;;;;;;4.63;2.23;;;21.90;99.90;;;;;;4945582;28;20645;-72
2023/08/26 12:12:45;;;;;;;5.63;2.40;;;21.80;99.90;;;;;;4943927;28;20419;-70
2023/08/26 12:15:16;;;;;;;2.93;2.10;;;21.70;99.90;;;;;;4946530;28;20438;-70
2023/08/26 12:17:48;;;;;;;4.23;2.20;;;21.80;99.90;;;;;;4939858;28;21762;-70
2023/08/26 12:20:29;;;;;;;3.70;2.40;;;21.80;99.90;;;;;;4945122;28;20407;-70
2023/08/26 12:22:58;;;;;;;5.70;2.47;;;21.90;99.90;;;;;;4945112;28;20470;-70
2023/08/26 12:25:25;;;;;;;4.30;2.20;;;21.80;99.90;;;;;;4946624;28;20494;-71
2023/08/26 12:27:51;;;;;;;3.20;2.47;;;22.00;99.90;;;;;;4946929;28;20419;-71
2023/08/26 12:30:16;;;;;;;2.83;2.30;;;22.10;99.90;;;;;;4941260;28;20454;-71
2023/08/26 12:32:42;;;;;;;5.73;2.43;;;22.00;99.90;;;;;;4937971;28;20446;-71
2023/08/26 12:35:08;;;;;;;3.50;2.37;;;22.00;99.90;;;;;;4945836;28;20294;-71
2023/08/26 12:37:34;;;;;;;3.07;2.30;;;22.10;99.90;;;;;;4946018;28;20183;-71
2023/08/26 12:40:04;;;;;;;3.00;2.40;;;22.00;99.90;;;;;;4945071;28;20257;-71
2023/08/26 12:42:30;;;;;;;3.90;2.10;;;22.00;99.90;;;;;;4942500;28;20470;-71